sensor_id;sensor_type;location;lat;lon;timestamp;P1;durP1;ratioP1;P2;durP2;ratioP2
34491;SDS011;20737;49.908;8.126;2023-04-06T00:00:22;12.23;;;5.60;;
34491;SDS011;20737;49.908;8.126;2023-04-06T00:02:49;11.73;;;7.47;;
34491;SDS011;20737;49.908;8.126;2023-04-06T00:05:18;11.53;;;6.03;;
34491;SDS011;20737;49.908;8.126;2023-04-06T00:07:45;8.80;;;4.97;;
34491;SDS011;20737;49.908;8.126;2023-04-06T00:10:13;10.07;;;6.10;;
34491;SDS011;20737;49.908;8.126;2023-04-06T00:12:41;15.03;;;6.40;;
34491;SDS011;20737;49.908;8.126;2023-04-06T00:15:08;10.50;;;5.27;;
34491;SDS011;20737;49.908;8.126;2023-04-06T00:17:36;12.03;;;5.97;;
34491;SDS011;20737;49.908;8.126;2023-04-06T00:20:03;11.67;;;5.63;;
34491;SDS011;20737;49.908;8.126;2023-04-06T00:22:31;9.53;;;5.40;;
34491;SDS011;20737;49.908;8.126;2023-04-06T00:24:59;8.90;;;5.47;;
34491;SDS011;20737;49.908;8.126;2023-04-06T00:27:26;8.37;;;4.83;;
34491;SDS011;20737;49.908;8.126;2023-04-06T00:29:53;10.53;;;5.53;;
34491;SDS011;20737;49.908;8.126;2023-04-06T00:32:20;11.97;;;5.53;;
34491;SDS011;20737;49.908;8.126;2023-04-06T00:34:46;8.53;;;5.17;;
34491;SDS011;20737;49.908;8.126;2023-04-06T00:37:13;9.13;;;5.13;;
34491;SDS011;20737;49.908;8.126;2023-04-06T00:39:42;9.03;;;5.63;;
34491;SDS011;20737;49.908;8.126;2023-04-06T00:42:10;11.00;;;5.50;;
34491;SDS011;20737;49.908;8.126;2023-04-06T00:44:39;10.70;;;5.37;;
34491;SDS011;20737;49.908;8.126;2023-04-06T00:47:06;12.30;;;5.07;;
34491;SDS011;20737;49.908;8.126;2023-04-06T00:49:33;9.67;;;5.73;;
34491;SDS011;20737;49.908;8.126;2023-04-06T00:52:00;10.80;;;6.17;;
34491;SDS011;20737;49.908;8.126;2023-04-06T00:54:35;12.17;;;5.60;;
34491;SDS011;20737;49.908;8.126;2023-04-06T00:57:03;9.60;;;6.07;;
34491;SDS011;20737;49.908;8.126;2023-04-06T00:59:31;9.63;;;5.53;;
34491;SDS011;20737;49.908;8.126;2023-04-06T01:01:58;13.10;;;5.53;;
34491;SDS011;20737;49.908;8.126;2023-04-06T01:04:25;11.17;;;5.63;;
34491;SDS011;20737;49.908;8.126;2023-04-06T01:06:52;8.20;;;5.07;;
34491;SDS011;20737;49.908;8.126;2023-04-06T01:09:19;10.67;;;5.17;;
34491;SDS011;20737;49.908;8.126;2023-04-06T01:11:46;8.73;;;4.90;;
34491;SDS011;20737;49.908;8.126;2023-04-06T01:14:15;11.03;;;5.17;;
34491;SDS011;20737;49.908;8.126;2023-04-06T01:16:42;9.97;;;5.53;;
34491;SDS011;20737;49.908;8.126;2023-04-06T01:19:09;8.40;;;4.50;;
34491;SDS011;20737;49.908;8.126;2023-04-06T01:21:36;10.97;;;5.03;;
34491;SDS011;20737;49.908;8.126;2023-04-06T01:24:06;11.03;;;5.27;;
34491;SDS011;20737;49.908;8.126;2023-04-06T01:26:34;12.23;;;5.40;;
34491;SDS011;20737;49.908;8.126;2023-04-06T01:29:02;9.97;;;5.43;;
34491;SDS011;20737;49.908;8.126;2023-04-06T01:31:29;9.47;;;5.30;;
34491;SDS011;20737;49.908;8.126;2023-04-06T01:33:56;9.67;;;5.37;;
34491;SDS011;20737;49.908;8.126;2023-04-06T01:36:22;22.27;;;9.20;;
34491;SDS011;20737;49.908;8.126;2023-04-06T01:38:49;22.20;;;7.87;;
34491;SDS011;20737;49.908;8.126;2023-04-06T01:41:18;11.80;;;6.23;;
34491;SDS011;20737;49.908;8.126;2023-04-06T01:43:45;24.80;;;9.50;;
34491;SDS011;20737;49.908;8.126;2023-04-06T01:46:13;17.03;;;6.97;;
34491;SDS011;20737;49.908;8.126;2023-04-06T01:48:40;10.50;;;6.00;;
34491;SDS011;20737;49.908;8.126;2023-04-06T01:51:07;10.10;;;5.07;;
34491;SDS011;20737;49.908;8.126;2023-04-06T01:53:34;9.77;;;4.90;;
34491;SDS011;20737;49.908;8.126;2023-04-06T01:56:01;16.50;;;6.60;;
34491;SDS011;20737;49.908;8.126;2023-04-06T01:58:29;9.80;;;5.20;;
34491;SDS011;20737;49.908;8.126;2023-04-06T02:00:57;8.90;;;5.23;;
34491;SDS011;20737;49.908;8.126;2023-04-06T02:03:24;12.07;;;5.77;;
34491;SDS011;20737;49.908;8.126;2023-04-06T02:05:51;20.47;;;8.30;;
34491;SDS011;20737;49.908;8.126;2023-04-06T02:08:20;17.93;;;7.67;;
34491;SDS011;20737;49.908;8.126;2023-04-06T02:10:46;15.97;;;8.20;;
34491;SDS011;20737;49.908;8.126;2023-04-06T02:13:13;14.20;;;6.63;;
34491;SDS011;20737;49.908;8.126;2023-04-06T02:15:41;12.80;;;6.47;;
34491;SDS011;20737;49.908;8.126;2023-04-06T02:18:08;10.87;;;6.47;;
34491;SDS011;20737;49.908;8.126;2023-04-06T02:20:35;11.17;;;5.83;;
34491;SDS011;20737;49.908;8.126;2023-04-06T02:23:02;16.27;;;7.97;;
34491;SDS011;20737;49.908;8.126;2023-04-06T02:25:36;21.70;;;8.40;;
34491;SDS011;20737;49.908;8.126;2023-04-06T02:28:03;17.60;;;8.17;;
34491;SDS011;20737;49.908;8.126;2023-04-06T02:30:30;16.03;;;7.60;;
34491;SDS011;20737;49.908;8.126;2023-04-06T02:32:59;12.93;;;7.07;;
34491;SDS011;20737;49.908;8.126;2023-04-06T02:35:27;10.10;;;6.00;;
34491;SDS011;20737;49.908;8.126;2023-04-06T02:37:54;10.90;;;5.33;;
34491;SDS011;20737;49.908;8.126;2023-04-06T02:40:21;9.47;;;5.10;;
34491;SDS011;20737;49.908;8.126;2023-04-06T02:42:48;8.27;;;5.70;;
34491;SDS011;20737;49.908;8.126;2023-04-06T02:45:15;9.80;;;5.33;;
34491;SDS011;20737;49.908;8.126;2023-04-06T02:47:42;12.07;;;5.90;;
34491;SDS011;20737;49.908;8.126;2023-04-06T02:50:10;11.77;;;5.50;;
34491;SDS011;20737;49.908;8.126;2023-04-06T02:52:37;9.73;;;5.53;;
34491;SDS011;20737;49.908;8.126;2023-04-06T02:55:04;12.43;;;5.27;;
34491;SDS011;20737;49.908;8.126;2023-04-06T02:57:32;9.93;;;5.13;;
34491;SDS011;20737;49.908;8.126;2023-04-06T02:59:59;10.83;;;5.83;;
34491;SDS011;20737;49.908;8.126;2023-04-06T03:02:26;10.50;;;5.87;;
34491;SDS011;20737;49.908;8.126;2023-04-06T03:04:53;10.03;;;5.23;;
34491;SDS011;20737;49.908;8.126;2023-04-06T03:07:21;8.70;;;5.43;;
34491;SDS011;20737;49.908;8.126;2023-04-06T03:09:48;15.13;;;5.90;;
34491;SDS011;20737;49.908;8.126;2023-04-06T03:12:15;12.37;;;5.77;;
34491;SDS011;20737;49.908;8.126;2023-04-06T03:14:42;11.87;;;6.23;;
34491;SDS011;20737;49.908;8.126;2023-04-06T03:17:09;10.20;;;5.57;;
34491;SDS011;20737;49.908;8.126;2023-04-06T03:19:35;11.13;;;5.77;;
34491;SDS011;20737;49.908;8.126;2023-04-06T03:22:05;10.17;;;5.07;;
34491;SDS011;20737;49.908;8.126;2023-04-06T03:24:33;11.20;;;5.70;;
34491;SDS011;20737;49.908;8.126;2023-04-06T03:27:00;10.33;;;5.33;;
34491;SDS011;20737;49.908;8.126;2023-04-06T03:29:27;9.73;;;4.93;;
34491;SDS011;20737;49.908;8.126;2023-04-06T03:31:54;9.90;;;5.53;;
34491;SDS011;20737;49.908;8.126;2023-04-06T03:34:20;10.40;;;5.70;;
34491;SDS011;20737;49.908;8.126;2023-04-06T03:36:47;10.93;;;5.17;;
34491;SDS011;20737;49.908;8.126;2023-04-06T03:39:14;10.70;;;5.07;;
34491;SDS011;20737;49.908;8.126;2023-04-06T03:41:42;12.83;;;5.97;;
34491;SDS011;20737;49.908;8.126;2023-04-06T03:44:10;9.20;;;5.43;;
34491;SDS011;20737;49.908;8.126;2023-04-06T03:46:37;10.57;;;5.73;;
34491;SDS011;20737;49.908;8.126;2023-04-06T03:49:04;11.20;;;5.40;;
34491;SDS011;20737;49.908;8.126;2023-04-06T03:51:30;12.10;;;5.57;;
34491;SDS011;20737;49.908;8.126;2023-04-06T03:53:57;11.43;;;6.10;;
34491;SDS011;20737;49.908;8.126;2023-04-06T03:56:24;11.37;;;5.37;;
34491;SDS011;20737;49.908;8.126;2023-04-06T03:58:52;13.53;;;6.20;;
34491;SDS011;20737;49.908;8.126;2023-04-06T04:01:19;12.40;;;6.27;;
34491;SDS011;20737;49.908;8.126;2023-04-06T04:03:46;11.67;;;6.33;;
34491;SDS011;20737;49.908;8.126;2023-04-06T04:06:13;11.87;;;5.37;;
34491;SDS011;20737;49.908;8.126;2023-04-06T04:08:40;9.90;;;6.20;;
34491;SDS011;20737;49.908;8.126;2023-04-06T04:11:07;13.03;;;6.20;;
34491;SDS011;20737;49.908;8.126;2023-04-06T04:13:33;11.20;;;5.33;;
34491;SDS011;20737;49.908;8.126;2023-04-06T04:16:02;12.20;;;7.13;;
34491;SDS011;20737;49.908;8.126;2023-04-06T04:18:29;12.00;;;6.13;;
34491;SDS011;20737;49.908;8.126;2023-04-06T04:20:56;18.00;;;7.37;;
34491;SDS011;20737;49.908;8.126;2023-04-06T04:23:22;35.03;;;12.00;;
34491;SDS011;20737;49.908;8.126;2023-04-06T04:25:49;18.73;;;8.67;;
34491;SDS011;20737;49.908;8.126;2023-04-06T04:28:18;16.23;;;8.47;;
34491;SDS011;20737;49.908;8.126;2023-04-06T04:30:45;12.70;;;6.07;;
34491;SDS011;20737;49.908;8.126;2023-04-06T04:33:13;13.00;;;6.80;;
34491;SDS011;20737;49.908;8.126;2023-04-06T04:35:40;14.40;;;6.60;;
34491;SDS011;20737;49.908;8.126;2023-04-06T04:38:07;10.07;;;6.30;;
34491;SDS011;20737;49.908;8.126;2023-04-06T04:40:34;12.50;;;6.30;;
34491;SDS011;20737;49.908;8.126;2023-04-06T04:43:01;12.23;;;6.03;;
34491;SDS011;20737;49.908;8.126;2023-04-06T04:45:27;15.00;;;6.90;;
34491;SDS011;20737;49.908;8.126;2023-04-06T04:47:54;20.07;;;8.27;;
34491;SDS011;20737;49.908;8.126;2023-04-06T04:50:22;21.13;;;8.33;;
34491;SDS011;20737;49.908;8.126;2023-04-06T04:52:49;19.30;;;7.57;;
34491;SDS011;20737;49.908;8.126;2023-04-06T04:55:16;21.40;;;8.50;;
34491;SDS011;20737;49.908;8.126;2023-04-06T04:57:43;18.40;;;6.97;;
34491;SDS011;20737;49.908;8.126;2023-04-06T05:00:10;20.13;;;7.17;;
34491;SDS011;20737;49.908;8.126;2023-04-06T05:02:38;17.37;;;6.87;;
34491;SDS011;20737;49.908;8.126;2023-04-06T05:05:05;14.93;;;7.27;;
34491;SDS011;20737;49.908;8.126;2023-04-06T05:07:34;18.70;;;7.63;;
34491;SDS011;20737;49.908;8.126;2023-04-06T05:10:01;17.30;;;7.33;;
34491;SDS011;20737;49.908;8.126;2023-04-06T05:12:28;17.23;;;7.33;;
34491;SDS011;20737;49.908;8.126;2023-04-06T05:14:55;22.87;;;9.23;;
34491;SDS011;20737;49.908;8.126;2023-04-06T05:17:22;25.77;;;9.40;;
34491;SDS011;20737;49.908;8.126;2023-04-06T05:19:49;32.60;;;10.40;;
34491;SDS011;20737;49.908;8.126;2023-04-06T05:22:16;16.37;;;7.43;;
34491;SDS011;20737;49.908;8.126;2023-04-06T05:24:44;21.67;;;7.70;;
34491;SDS011;20737;49.908;8.126;2023-04-06T05:27:11;24.30;;;9.70;;
34491;SDS011;20737;49.908;8.126;2023-04-06T05:29:38;20.17;;;7.97;;
34491;SDS011;20737;49.908;8.126;2023-04-06T05:32:05;13.03;;;6.40;;
34491;SDS011;20737;49.908;8.126;2023-04-06T05:34:32;18.73;;;7.23;;
34491;SDS011;20737;49.908;8.126;2023-04-06T05:36:59;16.63;;;6.93;;
34491;SDS011;20737;49.908;8.126;2023-04-06T05:39:26;13.17;;;6.27;;
34491;SDS011;20737;49.908;8.126;2023-04-06T05:41:54;13.73;;;6.63;;
34491;SDS011;20737;49.908;8.126;2023-04-06T05:44:21;12.10;;;5.50;;
34491;SDS011;20737;49.908;8.126;2023-04-06T05:46:48;11.47;;;5.83;;
34491;SDS011;20737;49.908;8.126;2023-04-06T05:49:15;18.90;;;7.33;;
34491;SDS011;20737;49.908;8.126;2023-04-06T05:51:41;13.07;;;6.33;;
34491;SDS011;20737;49.908;8.126;2023-04-06T05:54:08;14.60;;;7.10;;
34491;SDS011;20737;49.908;8.126;2023-04-06T05:56:35;11.53;;;6.00;;
34491;SDS011;20737;49.908;8.126;2023-04-06T05:59:03;12.23;;;6.20;;
34491;SDS011;20737;49.908;8.126;2023-04-06T06:01:30;11.80;;;6.00;;
34491;SDS011;20737;49.908;8.126;2023-04-06T06:03:57;11.73;;;5.73;;
34491;SDS011;20737;49.908;8.126;2023-04-06T06:06:24;15.00;;;7.07;;
34491;SDS011;20737;49.908;8.126;2023-04-06T06:08:51;11.40;;;6.83;;
34491;SDS011;20737;49.908;8.126;2023-04-06T06:11:17;13.37;;;7.10;;
34491;SDS011;20737;49.908;8.126;2023-04-06T06:13:44;14.43;;;6.90;;
34491;SDS011;20737;49.908;8.126;2023-04-06T06:16:12;11.30;;;7.10;;
34491;SDS011;20737;49.908;8.126;2023-04-06T06:18:39;15.77;;;7.43;;
34491;SDS011;20737;49.908;8.126;2023-04-06T06:21:06;11.57;;;6.40;;
34491;SDS011;20737;49.908;8.126;2023-04-06T06:23:33;11.60;;;6.07;;
34491;SDS011;20737;49.908;8.126;2023-04-06T06:26:00;13.57;;;7.30;;
34491;SDS011;20737;49.908;8.126;2023-04-06T06:28:27;13.50;;;6.83;;
34491;SDS011;20737;49.908;8.126;2023-04-06T06:30:54;13.13;;;6.47;;
34491;SDS011;20737;49.908;8.126;2023-04-06T06:33:22;15.87;;;7.47;;
34491;SDS011;20737;49.908;8.126;2023-04-06T06:35:49;16.47;;;8.23;;
34491;SDS011;20737;49.908;8.126;2023-04-06T06:38:17;13.30;;;7.70;;
34491;SDS011;20737;49.908;8.126;2023-04-06T06:40:44;12.33;;;7.57;;
34491;SDS011;20737;49.908;8.126;2023-04-06T06:43:12;13.53;;;7.90;;
34491;SDS011;20737;49.908;8.126;2023-04-06T06:45:38;18.10;;;7.97;;
34491;SDS011;20737;49.908;8.126;2023-04-06T06:48:05;12.53;;;8.07;;
34491;SDS011;20737;49.908;8.126;2023-04-06T06:50:33;17.10;;;8.07;;
34491;SDS011;20737;49.908;8.126;2023-04-06T06:53:00;14.20;;;8.67;;
34491;SDS011;20737;49.908;8.126;2023-04-06T06:55:27;13.95;;;8.55;;
34491;SDS011;20737;49.908;8.126;2023-04-06T06:57:54;14.10;;;8.93;;
34491;SDS011;20737;49.908;8.126;2023-04-06T07:00:21;13.70;;;8.52;;
34491;SDS011;20737;49.908;8.126;2023-04-06T07:02:48;11.10;;;7.57;;
34491;SDS011;20737;49.908;8.126;2023-04-06T07:05:15;13.52;;;8.63;;
34491;SDS011;20737;49.908;8.126;2023-04-06T07:07:44;14.68;;;9.40;;
34491;SDS011;20737;49.908;8.126;2023-04-06T07:10:11;12.65;;;9.02;;
34491;SDS011;20737;49.908;8.126;2023-04-06T07:12:37;14.32;;;8.95;;
34491;SDS011;20737;49.908;8.126;2023-04-06T07:15:05;16.27;;;9.70;;
34491;SDS011;20737;49.908;8.126;2023-04-06T07:17:32;14.30;;;8.55;;
34491;SDS011;20737;49.908;8.126;2023-04-06T07:19:59;13.80;;;9.20;;
34491;SDS011;20737;49.908;8.126;2023-04-06T07:22:26;14.73;;;9.07;;
34491;SDS011;20737;49.908;8.126;2023-04-06T07:24:54;17.17;;;9.27;;
34491;SDS011;20737;49.908;8.126;2023-04-06T07:27:21;12.15;;;8.57;;
34491;SDS011;20737;49.908;8.126;2023-04-06T07:29:48;12.65;;;8.18;;
34491;SDS011;20737;49.908;8.126;2023-04-06T07:32:15;11.85;;;8.48;;
34491;SDS011;20737;49.908;8.126;2023-04-06T07:34:42;13.77;;;8.50;;
34491;SDS011;20737;49.908;8.126;2023-04-06T07:37:10;11.75;;;8.07;;
34491;SDS011;20737;49.908;8.126;2023-04-06T07:39:37;11.35;;;8.70;;
34491;SDS011;20737;49.908;8.126;2023-04-06T07:42:05;16.20;;;9.23;;
34491;SDS011;20737;49.908;8.126;2023-04-06T07:44:32;13.05;;;8.38;;
34491;SDS011;20737;49.908;8.126;2023-04-06T07:46:59;10.75;;;8.73;;
34491;SDS011;20737;49.908;8.126;2023-04-06T07:49:25;13.70;;;9.27;;
34491;SDS011;20737;49.908;8.126;2023-04-06T07:51:53;11.20;;;8.27;;
34491;SDS011;20737;49.908;8.126;2023-04-06T07:54:20;10.18;;;8.25;;
34491;SDS011;20737;49.908;8.126;2023-04-06T07:56:47;9.63;;;7.68;;
34491;SDS011;20737;49.908;8.126;2023-04-06T07:59:15;12.15;;;7.88;;
34491;SDS011;20737;49.908;8.126;2023-04-06T08:01:42;10.13;;;7.80;;
34491;SDS011;20737;49.908;8.126;2023-04-06T08:04:09;10.50;;;8.43;;
34491;SDS011;20737;49.908;8.126;2023-04-06T08:06:36;10.65;;;8.35;;
34491;SDS011;20737;49.908;8.126;2023-04-06T08:09:03;11.38;;;8.18;;
34491;SDS011;20737;49.908;8.126;2023-04-06T08:11:29;10.70;;;7.85;;
34491;SDS011;20737;49.908;8.126;2023-04-06T08:13:56;10.98;;;7.80;;
34491;SDS011;20737;49.908;8.126;2023-04-06T08:16:24;10.60;;;7.30;;
34491;SDS011;20737;49.908;8.126;2023-04-06T08:18:51;9.60;;;8.55;;
34491;SDS011;20737;49.908;8.126;2023-04-06T08:21:18;11.27;;;7.90;;
34491;SDS011;20737;49.908;8.126;2023-04-06T08:23:45;10.95;;;7.78;;
34491;SDS011;20737;49.908;8.126;2023-04-06T08:26:12;8.63;;;7.63;;
34491;SDS011;20737;49.908;8.126;2023-04-06T08:28:39;9.82;;;7.63;;
34491;SDS011;20737;49.908;8.126;2023-04-06T08:31:06;9.90;;;7.90;;
34491;SDS011;20737;49.908;8.126;2023-04-06T08:33:34;10.63;;;8.18;;
34491;SDS011;20737;49.908;8.126;2023-04-06T08:36:10;10.43;;;7.45;;
34491;SDS011;20737;49.908;8.126;2023-04-06T08:38:38;10.35;;;8.45;;
34491;SDS011;20737;49.908;8.126;2023-04-06T08:41:08;9.98;;;8.00;;
34491;SDS011;20737;49.908;8.126;2023-04-06T08:43:36;11.55;;;8.55;;
34491;SDS011;20737;49.908;8.126;2023-04-06T08:46:08;11.80;;;8.60;;
34491;SDS011;20737;49.908;8.126;2023-04-06T08:48:38;10.93;;;7.97;;
34491;SDS011;20737;49.908;8.126;2023-04-06T08:51:06;11.27;;;8.10;;
34491;SDS011;20737;49.908;8.126;2023-04-06T08:53:33;12.05;;;8.45;;
34491;SDS011;20737;49.908;8.126;2023-04-06T08:56:00;12.35;;;8.10;;
34491;SDS011;20737;49.908;8.126;2023-04-06T08:58:28;12.68;;;9.07;;
34491;SDS011;20737;49.908;8.126;2023-04-06T09:00:58;13.32;;;8.15;;
34491;SDS011;20737;49.908;8.126;2023-04-06T09:03:25;12.07;;;8.20;;
34491;SDS011;20737;49.908;8.126;2023-04-06T09:05:55;11.20;;;8.52;;
34491;SDS011;20737;49.908;8.126;2023-04-06T09:08:22;12.52;;;8.50;;
34491;SDS011;20737;49.908;8.126;2023-04-06T09:10:49;12.15;;;8.77;;
34491;SDS011;20737;49.908;8.126;2023-04-06T09:13:17;11.13;;;8.45;;
34491;SDS011;20737;49.908;8.126;2023-04-06T09:15:43;11.68;;;8.80;;
34491;SDS011;20737;49.908;8.126;2023-04-06T09:18:10;10.07;;;8.40;;
34491;SDS011;20737;49.908;8.126;2023-04-06T09:20:37;10.45;;;8.77;;
34491;SDS011;20737;49.908;8.126;2023-04-06T09:23:06;11.57;;;9.40;;
34491;SDS011;20737;49.908;8.126;2023-04-06T09:25:43;13.13;;;9.13;;
34491;SDS011;20737;49.908;8.126;2023-04-06T09:28:10;9.90;;;8.77;;
34491;SDS011;20737;49.908;8.126;2023-04-06T09:30:36;10.43;;;8.77;;
34491;SDS011;20737;49.908;8.126;2023-04-06T09:33:21;11.18;;;9.13;;
34491;SDS011;20737;49.908;8.126;2023-04-06T09:35:49;10.73;;;8.88;;
34491;SDS011;20737;49.908;8.126;2023-04-06T09:38:17;11.85;;;9.80;;
34491;SDS011;20737;49.908;8.126;2023-04-06T09:40:48;12.57;;;9.43;;
34491;SDS011;20737;49.908;8.126;2023-04-06T09:43:23;10.05;;;8.65;;
34491;SDS011;20737;49.908;8.126;2023-04-06T09:45:50;11.45;;;8.82;;
34491;SDS011;20737;49.908;8.126;2023-04-06T09:48:18;9.85;;;8.85;;
34491;SDS011;20737;49.908;8.126;2023-04-06T09:50:46;10.07;;;8.98;;
34491;SDS011;20737;49.908;8.126;2023-04-06T09:53:15;11.43;;;9.05;;
34491;SDS011;20737;49.908;8.126;2023-04-06T09:55:45;10.15;;;9.20;;
34491;SDS011;20737;49.908;8.126;2023-04-06T09:58:15;9.48;;;8.52;;
34491;SDS011;20737;49.908;8.126;2023-04-06T10:00:44;10.43;;;8.80;;
34491;SDS011;20737;49.908;8.126;2023-04-06T10:03:19;9.68;;;8.68;;
34491;SDS011;20737;49.908;8.126;2023-04-06T10:05:54;10.00;;;8.68;;
34491;SDS011;20737;49.908;8.126;2023-04-06T10:08:25;10.13;;;7.95;;
34491;SDS011;20737;49.908;8.126;2023-04-06T10:10:54;10.95;;;9.32;;
34491;SDS011;20737;49.908;8.126;2023-04-06T10:13:21;12.18;;;8.32;;
34491;SDS011;20737;49.908;8.126;2023-04-06T10:15:49;11.02;;;8.82;;
34491;SDS011;20737;49.908;8.126;2023-04-06T10:18:17;9.90;;;8.48;;
34491;SDS011;20737;49.908;8.126;2023-04-06T10:20:47;10.38;;;8.60;;
34491;SDS011;20737;49.908;8.126;2023-04-06T10:23:19;11.73;;;8.20;;
34491;SDS011;20737;49.908;8.126;2023-04-06T10:25:54;10.93;;;8.60;;
34491;SDS011;20737;49.908;8.126;2023-04-06T10:28:22;12.27;;;8.45;;
34491;SDS011;20737;49.908;8.126;2023-04-06T10:30:49;9.02;;;7.28;;
34491;SDS011;20737;49.908;8.126;2023-04-06T10:33:24;10.82;;;7.60;;
34491;SDS011;20737;49.908;8.126;2023-04-06T10:35:52;11.32;;;7.68;;
34491;SDS011;20737;49.908;8.126;2023-04-06T10:38:19;12.95;;;8.40;;
34491;SDS011;20737;49.908;8.126;2023-04-06T10:40:47;11.30;;;8.02;;
34491;SDS011;20737;49.908;8.126;2023-04-06T10:43:18;11.90;;;8.57;;
34491;SDS011;20737;49.908;8.126;2023-04-06T10:45:52;12.55;;;8.32;;
34491;SDS011;20737;49.908;8.126;2023-04-06T10:48:21;10.48;;;8.27;;
34491;SDS011;20737;49.908;8.126;2023-04-06T10:50:49;12.10;;;8.10;;
34491;SDS011;20737;49.908;8.126;2023-04-06T10:53:20;10.25;;;7.47;;
34491;SDS011;20737;49.908;8.126;2023-04-06T10:55:49;14.35;;;8.50;;
34491;SDS011;20737;49.908;8.126;2023-04-06T10:58:18;10.35;;;8.05;;
34491;SDS011;20737;49.908;8.126;2023-04-06T11:00:45;11.90;;;7.95;;
34491;SDS011;20737;49.908;8.126;2023-04-06T11:03:13;10.85;;;7.97;;
34491;SDS011;20737;49.908;8.126;2023-04-06T11:05:43;13.05;;;8.38;;
34491;SDS011;20737;49.908;8.126;2023-04-06T11:08:10;12.07;;;8.25;;
34491;SDS011;20737;49.908;8.126;2023-04-06T11:10:37;14.48;;;8.70;;
34491;SDS011;20737;49.908;8.126;2023-04-06T11:13:03;15.88;;;8.25;;
34491;SDS011;20737;49.908;8.126;2023-04-06T11:15:35;10.95;;;8.00;;
34491;SDS011;20737;49.908;8.126;2023-04-06T11:18:03;12.23;;;7.53;;
34491;SDS011;20737;49.908;8.126;2023-04-06T11:20:30;10.90;;;7.03;;
34491;SDS011;20737;49.908;8.126;2023-04-06T11:22:57;12.73;;;7.75;;
34491;SDS011;20737;49.908;8.126;2023-04-06T11:25:24;10.77;;;6.70;;
34491;SDS011;20737;49.908;8.126;2023-04-06T11:27:52;12.38;;;7.32;;
34491;SDS011;20737;49.908;8.126;2023-04-06T11:30:19;11.95;;;7.00;;
34491;SDS011;20737;49.908;8.126;2023-04-06T11:32:48;10.77;;;7.25;;
34491;SDS011;20737;49.908;8.126;2023-04-06T11:35:19;12.75;;;7.75;;
34491;SDS011;20737;49.908;8.126;2023-04-06T11:37:46;12.40;;;7.55;;
34491;SDS011;20737;49.908;8.126;2023-04-06T11:40:14;11.73;;;7.53;;
34491;SDS011;20737;49.908;8.126;2023-04-06T11:42:41;12.15;;;7.70;;
34491;SDS011;20737;49.908;8.126;2023-04-06T11:45:09;14.38;;;8.10;;
34491;SDS011;20737;49.908;8.126;2023-04-06T11:47:41;11.93;;;7.43;;
34491;SDS011;20737;49.908;8.126;2023-04-06T11:50:10;11.15;;;6.25;;
34491;SDS011;20737;49.908;8.126;2023-04-06T11:52:38;11.07;;;6.93;;
34491;SDS011;20737;49.908;8.126;2023-04-06T11:55:10;12.45;;;8.20;;
34491;SDS011;20737;49.908;8.126;2023-04-06T11:57:39;12.57;;;8.45;;
34491;SDS011;20737;49.908;8.126;2023-04-06T12:00:06;14.63;;;8.57;;
34491;SDS011;20737;49.908;8.126;2023-04-06T12:02:34;15.63;;;8.27;;
34491;SDS011;20737;49.908;8.126;2023-04-06T12:05:01;12.93;;;8.55;;
34491;SDS011;20737;49.908;8.126;2023-04-06T12:07:29;14.48;;;8.48;;
34491;SDS011;20737;49.908;8.126;2023-04-06T12:09:56;12.32;;;8.20;;
34491;SDS011;20737;49.908;8.126;2023-04-06T12:12:23;15.80;;;8.40;;
34491;SDS011;20737;49.908;8.126;2023-04-06T12:14:50;12.95;;;8.35;;
34491;SDS011;20737;49.908;8.126;2023-04-06T12:17:17;15.18;;;8.27;;
34491;SDS011;20737;49.908;8.126;2023-04-06T12:19:45;13.35;;;8.15;;
34491;SDS011;20737;49.908;8.126;2023-04-06T12:22:12;13.85;;;7.75;;
34491;SDS011;20737;49.908;8.126;2023-04-06T12:24:40;13.07;;;7.28;;
34491;SDS011;20737;49.908;8.126;2023-04-06T12:27:07;12.13;;;7.95;;
34491;SDS011;20737;49.908;8.126;2023-04-06T12:29:36;11.40;;;7.15;;
34491;SDS011;20737;49.908;8.126;2023-04-06T12:32:03;11.88;;;7.45;;
34491;SDS011;20737;49.908;8.126;2023-04-06T12:34:30;12.23;;;7.18;;
34491;SDS011;20737;49.908;8.126;2023-04-06T12:36:57;14.90;;;6.75;;
34491;SDS011;20737;49.908;8.126;2023-04-06T12:39:24;9.95;;;5.82;;
34491;SDS011;20737;49.908;8.126;2023-04-06T12:41:53;8.95;;;5.63;;
34491;SDS011;20737;49.908;8.126;2023-04-06T12:44:21;7.68;;;5.30;;
34491;SDS011;20737;49.908;8.126;2023-04-06T12:46:48;7.43;;;5.15;;
34491;SDS011;20737;49.908;8.126;2023-04-06T12:49:15;8.98;;;5.57;;
34491;SDS011;20737;49.908;8.126;2023-04-06T12:51:44;10.35;;;6.45;;
34491;SDS011;20737;49.908;8.126;2023-04-06T12:54:10;8.38;;;5.43;;
34491;SDS011;20737;49.908;8.126;2023-04-06T12:56:37;11.55;;;6.38;;
34491;SDS011;20737;49.908;8.126;2023-04-06T12:59:06;6.97;;;4.18;;
34491;SDS011;20737;49.908;8.126;2023-04-06T13:01:33;6.68;;;3.95;;
34491;SDS011;20737;49.908;8.126;2023-04-06T13:03:59;6.93;;;4.55;;
34491;SDS011;20737;49.908;8.126;2023-04-06T13:06:26;8.38;;;5.13;;
34491;SDS011;20737;49.908;8.126;2023-04-06T13:08:53;6.65;;;4.40;;
34491;SDS011;20737;49.908;8.126;2023-04-06T13:11:20;6.68;;;4.50;;
34491;SDS011;20737;49.908;8.126;2023-04-06T13:13:49;8.45;;;4.78;;
34491;SDS011;20737;49.908;8.126;2023-04-06T13:16:17;6.43;;;4.55;;
34491;SDS011;20737;49.908;8.126;2023-04-06T13:18:44;6.13;;;4.65;;
34491;SDS011;20737;49.908;8.126;2023-04-06T13:21:13;7.75;;;4.97;;
34491;SDS011;20737;49.908;8.126;2023-04-06T13:23:41;13.75;;;7.35;;
34491;SDS011;20737;49.908;8.126;2023-04-06T13:26:08;10.65;;;5.32;;
34491;SDS011;20737;49.908;8.126;2023-04-06T13:28:36;9.57;;;5.43;;
34491;SDS011;20737;49.908;8.126;2023-04-06T13:31:04;10.50;;;5.55;;
34491;SDS011;20737;49.908;8.126;2023-04-06T13:33:32;8.35;;;4.50;;
34491;SDS011;20737;49.908;8.126;2023-04-06T13:36:00;5.22;;;3.80;;
34491;SDS011;20737;49.908;8.126;2023-04-06T13:38:27;6.90;;;4.40;;
34491;SDS011;20737;49.908;8.126;2023-04-06T13:40:55;8.15;;;4.95;;
34491;SDS011;20737;49.908;8.126;2023-04-06T13:43:22;6.47;;;4.32;;
34491;SDS011;20737;49.908;8.126;2023-04-06T13:45:52;6.68;;;4.20;;
34491;SDS011;20737;49.908;8.126;2023-04-06T13:48:20;8.05;;;4.63;;
34491;SDS011;20737;49.908;8.126;2023-04-06T13:50:48;7.43;;;4.30;;
34491;SDS011;20737;49.908;8.126;2023-04-06T13:53:15;7.72;;;4.60;;
34491;SDS011;20737;49.908;8.126;2023-04-06T13:55:42;7.93;;;4.05;;
34491;SDS011;20737;49.908;8.126;2023-04-06T13:58:10;7.13;;;4.40;;
34491;SDS011;20737;49.908;8.126;2023-04-06T14:00:38;7.68;;;4.82;;
34491;SDS011;20737;49.908;8.126;2023-04-06T14:03:05;7.55;;;3.80;;
34491;SDS011;20737;49.908;8.126;2023-04-06T14:05:32;7.97;;;4.20;;
34491;SDS011;20737;49.908;8.126;2023-04-06T14:08:01;7.35;;;3.90;;
34491;SDS011;20737;49.908;8.126;2023-04-06T14:10:27;9.88;;;4.93;;
34491;SDS011;20737;49.908;8.126;2023-04-06T14:12:54;6.53;;;3.97;;
34491;SDS011;20737;49.908;8.126;2023-04-06T14:15:23;9.32;;;5.10;;
34491;SDS011;20737;49.908;8.126;2023-04-06T14:17:49;8.18;;;4.57;;
34491;SDS011;20737;49.908;8.126;2023-04-06T14:20:17;8.13;;;4.72;;
34491;SDS011;20737;49.908;8.126;2023-04-06T14:22:44;7.10;;;4.45;;
34491;SDS011;20737;49.908;8.126;2023-04-06T14:25:12;8.27;;;5.20;;
34491;SDS011;20737;49.908;8.126;2023-04-06T14:27:41;9.15;;;5.13;;
34491;SDS011;20737;49.908;8.126;2023-04-06T14:30:08;10.73;;;5.25;;
34491;SDS011;20737;49.908;8.126;2023-04-06T14:32:35;6.82;;;4.63;;
34491;SDS011;20737;49.908;8.126;2023-04-06T14:35:02;9.15;;;5.28;;
34491;SDS011;20737;49.908;8.126;2023-04-06T14:37:29;9.60;;;5.13;;
34491;SDS011;20737;49.908;8.126;2023-04-06T14:39:56;6.32;;;4.15;;